Terminal Aerodrome Forecast
Issued by NWS

Home | Current Version | Previous Version | Text Only | Print | Product List | Glossary On
Versions: 1 2 3 4 5 6 7 8 9 10 11 12 13 14 15 16 17 18 19 20 21 22 23
000
FTUS43 KLSX 282000 AAA
TAFCPS
TAF AMD
KCPS 282026Z 2820/0118 15007KT 1SM -SN OVC025
     FM282300 11005KT 1SM -SN OVC008
     FM011200 VRB04KT 3SM -SN BR OVC008=

USA.gov is the U.S. government's official web portal to all federal, state and local government web resources and services.